Lenoir, North Carolina
Current Conditions -  °F | °C
As of 3:15 AM on Thursday 18 Dec 2014 (Local Time) from KMRN Reporting Station
Clear Clear  
Wind Chill: 29°   Ceiling: Unl
Heat Index: 29°   Visibility: 10mi
Dew Point: 27°   Wind: 0mph
Humidity: 94%   Direction: NA
Pressure: 30.14"   Gusts: NA
Location:  35.92°N, 81.54°W
Report Text: KMRN 180815Z AUTO 00000KT 10SM CLR M02/M03 A3014 RMK AO2 T10191028
Loading
Personal Weather Stations






























Interactive Weather Map New forecast layout! Learn more

10-Day Weather Forecast

Advertisements
Track Severe Weather on mobile